createdAt,value
2018-07-22T00:01:17.531Z,14.67
2018-07-22T00:03:45.896Z,16.47
2018-07-22T00:06:14.289Z,15.80
2018-07-22T00:08:42.671Z,14.27
2018-07-22T00:11:11.630Z,15.37
2018-07-22T00:13:39.981Z,15.50
2018-07-22T00:16:08.376Z,13.77
2018-07-22T00:18:36.751Z,14.40
2018-07-22T00:21:05.805Z,15.00
2018-07-22T00:23:34.266Z,13.23
2018-07-22T00:26:02.719Z,15.30
2018-07-22T00:28:31.181Z,14.67
2018-07-22T00:30:59.529Z,15.07
2018-07-22T00:33:28.013Z,14.70
2018-07-22T00:35:57.125Z,14.90
2018-07-22T00:38:25.509Z,15.00
2018-07-22T00:40:53.896Z,16.17
2018-07-22T00:43:22.388Z,14.90
2018-07-22T00:45:50.842Z,15.20
2018-07-22T00:48:19.222Z,15.17
2018-07-22T00:50:47.598Z,14.37
2018-07-22T00:53:15.974Z,13.57
2018-07-22T00:55:44.451Z,13.70
2018-07-22T00:58:12.873Z,13.70
2018-07-22T01:00:41.267Z,14.70
2018-07-22T01:03:09.665Z,13.70
2018-07-22T01:05:38.174Z,14.93
2018-07-22T01:08:06.507Z,14.33
2018-07-22T01:10:34.949Z,13.50
2018-07-22T01:13:03.345Z,14.57
2018-07-22T01:15:31.824Z,14.13
2018-07-22T01:18:00.286Z,14.13
2018-07-22T01:20:28.626Z,15.30
2018-07-22T01:22:56.984Z,16.67
2018-07-22T01:25:25.550Z,15.70
2018-07-22T01:27:54.039Z,15.23
2018-07-22T01:30:22.056Z,15.30
2018-07-22T01:32:50.590Z,15.27
2018-07-22T01:35:19.036Z,16.93
2018-07-22T01:37:47.471Z,16.70
2018-07-22T01:40:15.872Z,15.33
2018-07-22T01:42:44.494Z,15.37
2018-07-22T01:45:12.856Z,15.90
2018-07-22T01:47:41.216Z,16.23
2018-07-22T01:50:09.682Z,18.77
2018-07-22T01:52:38.065Z,17.40
2018-07-22T01:55:06.501Z,15.40
2018-07-22T01:57:34.944Z,16.83
2018-07-22T02:00:03.489Z,16.23
2018-07-22T02:02:31.858Z,16.70
2018-07-22T02:05:00.245Z,17.77
2018-07-22T02:07:28.617Z,16.87
2018-07-22T02:09:57.318Z,17.67
2018-07-22T02:12:25.649Z,16.50
2018-07-22T02:14:54.028Z,17.37
2018-07-22T02:17:22.450Z,17.60
2018-07-22T02:19:50.851Z,17.63
2018-07-22T02:22:19.276Z,21.43
2018-07-22T02:24:47.625Z,19.13
2018-07-22T02:27:16.002Z,19.53
2018-07-22T02:29:44.417Z,20.40
2018-07-22T02:32:13.375Z,21.23
2018-07-22T02:34:41.733Z,20.23
2018-07-22T02:37:10.167Z,20.90
2018-07-22T02:39:38.605Z,20.53
2018-07-22T02:42:07.012Z,21.00
2018-07-22T02:44:35.465Z,20.73
2018-07-22T02:47:03.869Z,21.43
2018-07-22T02:49:32.236Z,21.93
2018-07-22T02:52:00.653Z,22.50
2018-07-22T02:54:29.099Z,23.03
2018-07-22T02:56:57.547Z,22.00
2018-07-22T02:59:26.027Z,22.60
2018-07-22T03:01:54.465Z,23.10
2018-07-22T03:04:22.852Z,23.27
2018-07-22T03:06:51.320Z,22.73
2018-07-22T03:09:19.710Z,24.17
2018-07-22T03:11:48.048Z,22.93
2018-07-22T03:14:16.432Z,23.53
2018-07-22T03:16:44.883Z,24.00
2018-07-22T03:19:13.243Z,22.77
2018-07-22T03:21:41.707Z,22.77
2018-07-22T03:24:10.093Z,24.33
2018-07-22T03:26:38.522Z,25.37
2018-07-22T03:29:06.926Z,24.73
2018-07-22T03:31:35.285Z,23.33
2018-07-22T03:34:03.695Z,23.07
2018-07-22T03:36:32.133Z,23.03
2018-07-22T03:39:00.524Z,25.77
2018-07-22T03:41:28.884Z,23.17
2018-07-22T03:43:57.284Z,22.57
2018-07-22T03:46:25.671Z,24.10
2018-07-22T03:48:54.200Z,23.97
2018-07-22T03:51:22.600Z,21.73
2018-07-22T03:53:50.931Z,22.60
2018-07-22T03:56:19.394Z,24.40
2018-07-22T03:58:47.771Z,24.30
2018-07-22T04:01:16.227Z,22.50
2018-07-22T04:03:44.608Z,23.23
2018-07-22T04:06:13.175Z,22.70
2018-07-22T04:08:41.575Z,22.70
2018-07-22T04:11:09.893Z,23.97
2018-07-22T04:13:38.342Z,23.53
2018-07-22T04:16:06.793Z,23.07
2018-07-22T04:18:39.391Z,22.10
2018-07-22T04:21:07.819Z,23.10
2018-07-22T04:23:36.238Z,24.07
2018-07-22T04:26:04.614Z,22.83
2018-07-22T04:28:33.049Z,21.93
2018-07-22T04:31:01.453Z,22.43
2018-07-22T04:33:29.886Z,22.37
2018-07-22T04:35:58.269Z,22.93
2018-07-22T04:38:26.743Z,23.27
2018-07-22T04:40:55.245Z,24.00
2018-07-22T04:43:23.813Z,23.97
2018-07-22T04:45:52.205Z,23.33
2018-07-22T04:48:21.353Z,23.43
2018-07-22T04:50:49.743Z,24.63
2018-07-22T04:53:18.981Z,24.60
2018-07-22T04:55:47.346Z,24.27
2018-07-22T04:58:15.665Z,23.73
2018-07-22T05:00:44.098Z,25.03
2018-07-22T05:03:12.536Z,23.93
2018-07-22T05:05:40.961Z,23.37
2018-07-22T05:08:09.360Z,24.77
2018-07-22T05:10:38.488Z,25.80
2018-07-22T05:13:06.836Z,24.03
2018-07-22T05:15:35.219Z,23.63
2018-07-22T05:18:03.632Z,24.23
2018-07-22T05:20:31.977Z,23.40
2018-07-22T05:23:00.462Z,21.47
2018-07-22T05:25:28.907Z,23.97
2018-07-22T05:27:57.274Z,22.77
2018-07-22T05:30:25.653Z,23.63
2018-07-22T05:32:53.750Z,21.13
2018-07-22T05:35:22.149Z,20.10
2018-07-22T05:37:50.552Z,22.17
2018-07-22T05:40:19.038Z,20.77
2018-07-22T05:42:47.378Z,21.07
2018-07-22T05:45:15.749Z,19.93
2018-07-22T05:47:44.243Z,20.37
2018-07-22T05:50:12.681Z,20.50
2018-07-22T05:52:41.124Z,21.30
2018-07-22T05:55:09.493Z,21.90
2018-07-22T05:57:37.914Z,20.20
2018-07-22T06:00:07.146Z,18.70
2018-07-22T06:02:35.540Z,18.90
2018-07-22T06:05:03.927Z,19.30
2018-07-22T06:07:32.326Z,17.77
2018-07-22T06:10:00.826Z,16.57
2018-07-22T06:12:29.317Z,16.30
2018-07-22T06:14:57.741Z,14.47
2018-07-22T06:17:26.139Z,13.03
2018-07-22T06:19:54.211Z,15.40
2018-07-22T06:22:22.575Z,13.97
2018-07-22T06:24:50.998Z,14.07
2018-07-22T06:27:19.400Z,12.67
2018-07-22T06:29:48.486Z,12.63
2018-07-22T06:32:16.870Z,12.03
2018-07-22T06:34:45.441Z,11.90
2018-07-22T06:37:13.838Z,10.60
2018-07-22T06:39:42.239Z,10.63
2018-07-22T06:42:10.748Z,10.97
2018-07-22T06:44:39.202Z,10.40
2018-07-22T06:47:07.581Z,9.17
2018-07-22T06:49:36.035Z,9.43
2018-07-22T06:52:04.506Z,10.80
2018-07-22T06:54:32.907Z,9.33
2018-07-22T06:57:01.440Z,9.73
2018-07-22T06:59:29.723Z,8.30
2018-07-22T07:01:58.094Z,9.70
2018-07-22T07:04:26.457Z,8.40
2018-07-22T07:06:54.843Z,8.07
2018-07-22T07:09:23.197Z,9.20
2018-07-22T07:11:51.632Z,7.73
2018-07-22T07:14:20.055Z,8.60
2018-07-22T07:16:48.495Z,8.30
2018-07-22T07:19:16.905Z,8.00
2018-07-22T07:21:45.341Z,9.03
2018-07-22T07:24:13.795Z,9.80
2018-07-22T07:26:42.739Z,9.97
2018-07-22T07:29:11.145Z,9.70
2018-07-22T07:31:40.327Z,10.17
2018-07-22T07:34:09.100Z,9.97
2018-07-22T07:36:37.489Z,10.80
2018-07-22T07:39:08.702Z,11.30
2018-07-22T07:41:37.367Z,11.40
2018-07-22T07:44:06.093Z,11.70
2018-07-22T07:46:34.526Z,12.90
2018-07-22T07:49:02.948Z,13.60
2018-07-22T07:51:31.584Z,15.30
2018-07-22T07:53:59.938Z,16.33
2018-07-22T07:56:28.302Z,17.10
2018-07-22T07:58:56.897Z,18.27
2018-07-22T08:01:25.340Z,19.03
2018-07-22T08:03:53.769Z,19.57
2018-07-22T08:06:22.197Z,19.80
2018-07-22T08:08:50.624Z,19.30
2018-07-22T08:11:19.033Z,18.87
2018-07-22T08:13:47.082Z,19.53
2018-07-22T08:16:15.568Z,17.13
2018-07-22T08:18:43.993Z,16.87
2018-07-22T08:21:12.438Z,18.47
2018-07-22T08:23:41.084Z,18.80
2018-07-22T08:26:09.737Z,17.83
2018-07-22T08:28:49.519Z,19.77
2018-07-22T08:31:17.936Z,18.47
2018-07-22T08:33:46.619Z,19.17
2018-07-22T08:36:15.057Z,17.93
2018-07-22T08:38:43.494Z,20.57
2018-07-22T08:41:11.902Z,18.00
2018-07-22T08:43:40.299Z,20.97
2018-07-22T08:46:08.673Z,20.63
2018-07-22T08:48:37.053Z,21.17
2018-07-22T08:51:05.473Z,19.70
2018-07-22T08:53:33.995Z,20.53
2018-07-22T08:56:02.465Z,20.27
2018-07-22T08:58:30.957Z,20.77
2018-07-22T09:00:59.415Z,21.43
2018-07-22T09:03:28.287Z,21.73
2018-07-22T09:05:56.767Z,22.80
2018-07-22T09:08:25.106Z,21.13
2018-07-22T09:10:53.502Z,19.77
2018-07-22T09:13:21.868Z,18.57
2018-07-22T09:15:50.245Z,18.00
2018-07-22T09:18:18.725Z,19.27
2018-07-22T09:20:47.139Z,17.00
2018-07-22T09:23:15.569Z,16.90
2018-07-22T09:25:43.925Z,16.27
2018-07-22T09:28:12.431Z,17.87
2018-07-22T09:30:40.833Z,16.60
2018-07-22T09:33:09.289Z,12.87
2018-07-22T09:35:37.723Z,12.57
2018-07-22T09:38:06.102Z,10.07
2018-07-22T09:40:34.196Z,11.20
2018-07-22T09:43:03.157Z,13.10
2018-07-22T09:45:31.700Z,12.40
2018-07-22T09:48:00.191Z,13.97
2018-07-22T09:50:28.627Z,15.20
2018-07-22T09:52:57.038Z,17.27
2018-07-22T09:55:25.089Z,17.33
2018-07-22T09:57:53.591Z,18.87
2018-07-22T10:00:27.333Z,18.27
2018-07-22T10:02:55.811Z,19.10
2018-07-22T10:05:24.562Z,19.27
2018-07-22T10:07:53.109Z,20.73
2018-07-22T10:10:21.853Z,20.43
2018-07-22T10:12:50.295Z,19.60
2018-07-22T10:15:18.756Z,20.70
2018-07-22T10:17:47.157Z,20.67
2018-07-22T10:20:15.590Z,21.63
2018-07-22T10:22:44.077Z,22.97
2018-07-22T10:25:12.634Z,21.53
2018-07-22T10:27:41.376Z,20.53
2018-07-22T10:30:10.032Z,19.93
2018-07-22T10:32:38.407Z,21.70
2018-07-22T10:35:06.844Z,22.43
2018-07-22T10:37:35.204Z,21.70
2018-07-22T10:40:03.598Z,22.50
2018-07-22T10:42:31.984Z,22.57
2018-07-22T10:45:00.389Z,23.00
2018-07-22T10:47:28.824Z,24.90
2018-07-22T10:49:57.229Z,20.80
2018-07-22T10:52:25.700Z,19.33
2018-07-22T10:54:54.093Z,14.27
2018-07-22T10:57:22.576Z,11.40
2018-07-22T10:59:51.018Z,12.13
2018-07-22T11:02:19.536Z,10.07
2018-07-22T11:04:47.886Z,13.50
2018-07-22T11:07:17.231Z,12.80
2018-07-22T11:09:45.637Z,15.60
2018-07-22T11:12:14.070Z,13.93
2018-07-22T11:14:42.506Z,14.47
2018-07-22T11:17:10.909Z,15.43
2018-07-22T11:19:39.445Z,15.70
2018-07-22T11:22:08.080Z,14.53
2018-07-22T11:24:36.628Z,15.93
2018-07-22T11:27:05.088Z,16.90
2018-07-22T11:29:33.496Z,21.10
2018-07-22T11:32:01.856Z,18.57
2018-07-22T11:34:30.242Z,16.20
2018-07-22T11:36:58.658Z,16.17
2018-07-22T11:39:27.096Z,13.07
2018-07-22T11:41:55.560Z,10.57
2018-07-22T11:44:23.957Z,9.50
2018-07-22T11:46:52.473Z,11.20
2018-07-22T11:49:20.953Z,10.40
2018-07-22T11:51:49.373Z,10.57
2018-07-22T11:54:18.048Z,11.30
2018-07-22T11:56:46.381Z,11.30
2018-07-22T11:59:14.773Z,9.63
2018-07-22T12:01:43.179Z,8.80
2018-07-22T12:04:11.680Z,10.00
2018-07-22T12:06:40.067Z,10.57
2018-07-22T12:09:10.240Z,9.97
2018-07-22T12:11:38.869Z,10.20
2018-07-22T12:14:07.325Z,11.60
2018-07-22T12:16:35.731Z,12.77
2018-07-22T12:19:04.174Z,12.30
2018-07-22T12:21:32.647Z,12.17
2018-07-22T12:24:01.071Z,11.03
2018-07-22T12:26:29.470Z,10.93
2018-07-22T12:28:57.888Z,11.37
2018-07-22T12:31:26.397Z,12.33
2018-07-22T12:33:54.908Z,13.10
2018-07-22T12:36:23.356Z,13.63
2018-07-22T12:38:51.824Z,15.43
2018-07-22T12:41:20.358Z,13.70
2018-07-22T12:43:48.876Z,15.50
2018-07-22T12:46:17.335Z,14.77
2018-07-22T12:48:45.717Z,11.60
2018-07-22T12:51:14.121Z,13.40
2018-07-22T12:53:42.624Z,11.97
2018-07-22T12:56:11.031Z,12.13
2018-07-22T12:58:39.584Z,12.60
2018-07-22T13:01:07.959Z,10.80
2018-07-22T13:03:36.352Z,11.73
2018-07-22T13:06:04.813Z,11.70
2018-07-22T13:08:33.237Z,10.70
2018-07-22T13:11:01.623Z,11.03
2018-07-22T13:13:30.118Z,11.00
2018-07-22T13:15:58.498Z,11.20
2018-07-22T13:18:26.829Z,13.10
2018-07-22T13:20:56.098Z,13.47
2018-07-22T13:23:24.569Z,12.87
2018-07-22T13:25:53.039Z,12.97
2018-07-22T13:28:21.573Z,11.83
2018-07-22T13:30:49.917Z,13.00
2018-07-22T13:33:18.475Z,11.63
2018-07-22T13:35:46.808Z,11.53
2018-07-22T13:38:15.246Z,14.07
2018-07-22T13:40:43.576Z,13.53
2018-07-22T13:43:11.964Z,14.40
2018-07-22T13:45:41.097Z,14.20
2018-07-22T13:48:09.498Z,15.17
2018-07-22T13:50:38.259Z,13.27
2018-07-22T13:53:06.712Z,13.53
2018-07-22T13:55:36.134Z,14.30
2018-07-22T13:58:04.537Z,13.63
2018-07-22T14:00:32.969Z,14.70
2018-07-22T14:03:01.390Z,15.10
2018-07-22T14:05:29.797Z,14.60
2018-07-22T14:07:58.306Z,16.63
2018-07-22T14:10:26.732Z,16.40
2018-07-22T14:12:55.201Z,16.77
2018-07-22T14:15:23.607Z,14.80
2018-07-22T14:17:52.090Z,13.80
2018-07-22T14:20:20.625Z,13.37
2018-07-22T14:22:49.081Z,14.27
2018-07-22T14:25:17.501Z,14.40
2018-07-22T14:27:45.896Z,13.93
2018-07-22T14:30:14.268Z,15.17
2018-07-22T14:32:43.235Z,14.83
2018-07-22T14:35:11.745Z,15.27
2018-07-22T14:37:40.073Z,17.33
2018-07-22T14:40:08.473Z,17.30
2018-07-22T14:42:36.949Z,18.10
2018-07-22T14:45:06.368Z,17.20
2018-07-22T14:47:34.711Z,15.67
2018-07-22T14:50:03.125Z,18.27
2018-07-22T14:52:31.613Z,16.07
2018-07-22T14:55:00.047Z,16.70
2018-07-22T14:57:28.388Z,15.37
2018-07-22T14:59:56.744Z,15.20
2018-07-22T15:02:25.231Z,15.03
2018-07-22T15:04:53.666Z,14.80
2018-07-22T15:07:23.668Z,12.40
2018-07-22T15:09:52.552Z,12.63
2018-07-22T15:12:21.054Z,12.27
2018-07-22T15:14:49.513Z,12.80
2018-07-22T15:17:17.857Z,14.30
2018-07-22T15:19:46.289Z,12.50
2018-07-22T15:22:14.838Z,13.23
2018-07-22T15:24:43.492Z,14.30
2018-07-22T15:27:11.930Z,14.70
2018-07-22T15:29:40.376Z,16.17
2018-07-22T15:32:08.740Z,16.53
2018-07-22T15:34:37.176Z,17.17
2018-07-22T15:37:06.521Z,15.63
2018-07-22T15:39:34.979Z,18.07
2018-07-22T15:42:03.429Z,16.00
2018-07-22T15:44:31.832Z,16.50
2018-07-22T15:47:00.189Z,17.53
2018-07-22T15:49:28.562Z,17.30
2018-07-22T15:51:56.867Z,17.70
2018-07-22T15:54:25.247Z,19.37
2018-07-22T15:56:53.642Z,17.53
2018-07-22T15:59:22.049Z,19.07
2018-07-22T16:01:50.416Z,18.03
2018-07-22T16:04:18.826Z,15.40
2018-07-22T16:06:47.147Z,15.70
2018-07-22T16:09:15.604Z,16.53
2018-07-22T16:11:44.015Z,17.40
2018-07-22T16:14:12.518Z,16.90
2018-07-22T16:16:40.880Z,15.40
2018-07-22T16:19:09.278Z,16.07
2018-07-22T16:21:37.692Z,16.53
2018-07-22T16:24:06.057Z,15.23
2018-07-22T16:26:34.537Z,16.27
2018-07-22T16:29:02.871Z,16.10
2018-07-22T16:31:31.263Z,15.90
2018-07-22T16:33:59.674Z,16.33
2018-07-22T16:36:28.195Z,18.43
2018-07-22T16:38:56.529Z,20.50
2018-07-22T16:41:24.863Z,18.90
2018-07-22T16:43:53.295Z,19.70
2018-07-22T16:46:21.867Z,21.07
2018-07-22T16:48:50.386Z,22.37
2018-07-22T16:51:18.847Z,25.27
2018-07-22T16:53:47.303Z,22.20
2018-07-22T16:56:15.612Z,20.83
2018-07-22T16:58:44.045Z,23.27
2018-07-22T17:01:12.456Z,20.13
2018-07-22T17:03:40.894Z,22.73
2018-07-22T17:06:09.278Z,22.30
2018-07-22T17:08:37.608Z,27.73
2018-07-22T17:11:06.010Z,22.60
2018-07-22T17:13:34.390Z,21.43
2018-07-22T17:16:03.086Z,21.17
2018-07-22T17:18:31.541Z,20.87
2018-07-22T17:20:59.840Z,20.17
2018-07-22T17:23:28.305Z,20.13
2018-07-22T17:25:56.719Z,21.00
2018-07-22T17:28:25.123Z,19.80
2018-07-22T17:30:53.487Z,21.27
2018-07-22T17:33:21.907Z,18.80
2018-07-22T17:35:50.401Z,20.00
2018-07-22T17:38:18.888Z,21.60
2018-07-22T17:40:47.335Z,18.93
2018-07-22T17:43:15.759Z,19.70
2018-07-22T17:45:44.148Z,20.50
2018-07-22T17:48:12.550Z,20.30
2018-07-22T17:50:40.961Z,21.27
2018-07-22T17:53:09.309Z,19.47
2018-07-22T17:55:37.695Z,20.03
2018-07-22T17:58:06.197Z,19.30
2018-07-22T18:00:34.640Z,18.50
2018-07-22T18:03:15.019Z,20.87
2018-07-22T18:05:43.399Z,21.40
2018-07-22T18:08:11.789Z,22.30
2018-07-22T18:10:40.151Z,22.17
2018-07-22T18:13:08.600Z,20.00
2018-07-22T18:15:36.944Z,20.67
2018-07-22T18:18:05.577Z,20.50
2018-07-22T18:20:34.216Z,19.70
2018-07-22T18:23:02.602Z,19.17
2018-07-22T18:25:31.188Z,19.60
2018-07-22T18:27:59.788Z,19.63
2018-07-22T18:30:28.462Z,20.10
2018-07-22T18:32:57.023Z,19.97
2018-07-22T18:35:25.729Z,19.90
2018-07-22T18:37:54.174Z,19.47
2018-07-22T18:40:23.173Z,19.87
2018-07-22T18:42:51.855Z,20.27
2018-07-22T18:45:20.223Z,21.70
2018-07-22T18:47:48.616Z,19.83
2018-07-22T18:50:17.100Z,22.83
2018-07-22T18:52:45.836Z,21.77
2018-07-22T18:55:14.179Z,23.30
2018-07-22T18:57:42.526Z,20.10
2018-07-22T19:00:11.021Z,20.60
2018-07-22T19:02:39.462Z,20.10
2018-07-22T19:05:08.283Z,21.23
2018-07-22T19:07:36.877Z,23.80
2018-07-22T19:10:05.851Z,19.43
2018-07-22T19:12:34.241Z,20.23
2018-07-22T19:15:02.641Z,19.37
2018-07-22T19:17:31.007Z,18.60
2018-07-22T19:19:59.434Z,20.47
2018-07-22T19:22:27.808Z,20.43
2018-07-22T19:24:56.193Z,20.17
2018-07-22T19:27:24.665Z,19.87
2018-07-22T19:29:52.992Z,20.43
2018-07-22T19:32:21.348Z,22.00
2018-07-22T19:34:49.815Z,24.23
2018-07-22T19:37:18.169Z,22.53
2018-07-22T19:39:46.654Z,21.57
2018-07-22T19:42:15.166Z,21.43
2018-07-22T19:44:43.707Z,20.83
2018-07-22T19:47:12.132Z,19.83
2018-07-22T19:49:40.693Z,19.77
2018-07-22T19:52:09.137Z,18.77
2018-07-22T19:54:37.564Z,18.50
2018-07-22T19:57:06.169Z,18.27
2018-07-22T19:59:34.448Z,18.63
2018-07-22T20:02:02.928Z,19.00
2018-07-22T20:04:31.267Z,19.67
2018-07-22T20:06:59.855Z,18.37
2018-07-22T20:09:28.218Z,19.90
2018-07-22T20:11:56.642Z,20.10
2018-07-22T20:14:25.066Z,20.40
2018-07-22T20:16:53.566Z,19.67
2018-07-22T20:19:22.163Z,20.30
2018-07-22T20:21:50.536Z,19.57
2018-07-22T20:24:19.094Z,20.33
2018-07-22T20:26:47.534Z,19.63
2018-07-22T20:29:15.942Z,21.13
2018-07-22T20:31:45.055Z,19.70
2018-07-22T20:34:13.350Z,17.87
2018-07-22T20:36:41.840Z,18.07
2018-07-22T20:39:11.379Z,18.40
2018-07-22T20:41:40.778Z,18.43
2018-07-22T20:44:10.405Z,18.90
2018-07-22T20:46:38.737Z,18.43
2018-07-22T20:49:07.147Z,17.37
2018-07-22T20:51:35.757Z,19.23
2018-07-22T20:54:04.170Z,19.50
2018-07-22T20:56:32.565Z,19.97
2018-07-22T20:59:00.955Z,18.73
2018-07-22T21:01:29.705Z,19.90
2018-07-22T21:03:58.209Z,27.43
2018-07-22T21:06:26.659Z,19.83
2018-07-22T21:08:55.474Z,20.27
2018-07-22T21:11:24.841Z,19.97
2018-07-22T21:13:53.184Z,20.10
2018-07-22T21:16:21.645Z,21.87
2018-07-22T21:18:50.089Z,20.70
2018-07-22T21:21:18.469Z,21.47
2018-07-22T21:23:46.953Z,21.67
2018-07-22T21:26:15.314Z,22.50
2018-07-22T21:28:43.824Z,21.10
2018-07-22T21:31:12.228Z,21.60
2018-07-22T21:33:40.603Z,21.87
2018-07-22T21:36:08.967Z,22.07
2018-07-22T21:38:37.362Z,21.73
2018-07-22T21:41:05.802Z,21.57
2018-07-22T21:43:34.156Z,21.57
2018-07-22T21:46:02.529Z,21.90
2018-07-22T21:48:30.865Z,21.87
2018-07-22T21:50:59.305Z,21.67
2018-07-22T21:53:27.719Z,21.43
2018-07-22T21:55:56.071Z,22.47
2018-07-22T21:58:24.505Z,23.93
2018-07-22T22:00:52.956Z,22.80
2018-07-22T22:03:21.413Z,22.17
2018-07-22T22:05:49.902Z,22.67
2018-07-22T22:08:18.333Z,22.50
2018-07-22T22:10:46.733Z,21.87
2018-07-22T22:13:15.208Z,23.40
2018-07-22T22:15:43.683Z,22.40
2018-07-22T22:18:12.191Z,23.13
2018-07-22T22:20:41.160Z,22.97
2018-07-22T22:23:09.583Z,23.60
2018-07-22T22:25:38.050Z,23.30
2018-07-22T22:28:06.551Z,22.00
2018-07-22T22:30:35.014Z,22.10
2018-07-22T22:33:03.431Z,22.27
2018-07-22T22:35:31.935Z,23.17
2018-07-22T22:38:00.353Z,23.07
2018-07-22T22:40:28.793Z,23.67
2018-07-22T22:42:57.135Z,22.73
2018-07-22T22:45:25.596Z,23.07
2018-07-22T22:47:53.948Z,24.00
2018-07-22T22:50:22.371Z,23.00
2018-07-22T22:52:50.769Z,21.50
2018-07-22T22:55:19.117Z,22.60
2018-07-22T22:57:58.896Z,22.10
2018-07-22T23:00:27.314Z,21.40
2018-07-22T23:02:55.674Z,23.20
2018-07-22T23:05:24.342Z,22.07
2018-07-22T23:07:52.699Z,22.20
2018-07-22T23:10:21.126Z,22.30
2018-07-22T23:12:49.437Z,20.80
2018-07-22T23:15:17.869Z,21.43
2018-07-22T23:17:46.205Z,22.47
2018-07-22T23:20:14.683Z,22.37
2018-07-22T23:22:43.026Z,22.07
2018-07-22T23:25:11.438Z,24.13
2018-07-22T23:27:39.823Z,21.30
2018-07-22T23:30:08.244Z,21.87
2018-07-22T23:32:36.665Z,23.10
2018-07-22T23:35:05.074Z,22.60
2018-07-22T23:37:33.397Z,22.00
2018-07-22T23:40:01.867Z,24.13
2018-07-22T23:42:30.271Z,22.37
2018-07-22T23:44:58.715Z,22.93
2018-07-22T23:47:27.123Z,23.80
2018-07-22T23:49:55.460Z,24.10
2018-07-22T23:52:23.822Z,24.27
2018-07-22T23:54:52.285Z,23.07
2018-07-22T23:57:20.687Z,24.50
2018-07-22T23:59:49.171Z,23.40
